Time;durP1;ratioP1;P1;durP2;ratioP2;P2;SDS_P1;SDS_P2;PMS_P1;PMS_P2;Temp;Humidity;BMP_temperature;BMP_pressure;BME280_temperature;BME280_humidity;BME280_pressure;Samples;Min_cycle;Max_cycle;Signal;HPM_P1;HPM_P2
2022/03/10 04:02:20;;;;;;;23.90;11.40;;;1.60;99.90;;;;;;6331850;22;20018;-84
2022/03/10 04:05:21;;;;;;;23.38;12.45;;;1.60;99.90;;;;;;6312305;22;20071;-84
2022/03/10 04:07:47;;;;;;;24.05;12.02;;;1.60;99.90;;;;;;6282796;22;20020;-85
2022/03/10 04:10:18;;;;;;;26.33;12.43;;;1.60;99.90;;;;;;6287812;22;20010;-86
2022/03/10 04:13:15;;;;;;;24.90;13.23;;;1.50;99.90;;;;;;6288336;22;20010;-85
2022/03/10 04:15:57;;;;;;;22.85;12.05;;;1.50;99.90;;;;;;6338178;22;20091;-85
2022/03/10 04:18:26;;;;;;;26.65;12.65;;;1.50;99.90;;;;;;6312812;22;20134;-86
2022/03/10 04:21:00;;;;;;;26.40;12.27;;;1.60;99.90;;;;;;6312990;22;20079;-88
2022/03/10 04:23:49;;;;;;;;;;;;;;;;;;;;;
2022/03/10 04:26:30;;;;;;;24.63;12.48;;;1.50;99.90;;;;;;6312048;22;20011;-85
2022/03/10 04:29:02;;;;;;;24.10;12.40;;;1.50;99.90;;;;;;6312725;22;20014;-87
2022/03/10 04:31:40;;;;;;;21.20;11.40;;;1.50;99.90;;;;;;6313301;22;20010;-86
2022/03/10 04:34:52;;;;;;;;;;;;;;;;;;;;;
2022/03/10 04:37:32;;;;;;;25.23;12.45;;;1.40;99.90;;;;;;6312629;22;20065;-86
2022/03/10 04:40:42;;;;;;;;;;;;;;;;;;;;;
2022/03/10 04:44:13;;;;;;;;;;;;;;;;;;;;;
2022/03/10 04:47:40;;;;;;;24.52;12.60;;;1.40;99.90;;;;;;6309645;22;20389;-87
2022/03/10 04:55:21;;;;;;;24.00;12.45;;;1.30;99.90;;;;;;6191070;23;20063;-85
2022/03/10 04:57:57;;;;;;;;;;;;;;;;;;;;;
2022/03/10 05:01:14;;;;;;;;;;;;;;;;;;;;;
2022/03/10 05:04:26;;;;;;;;;;;;;;;;;;;;;
2022/03/10 05:07:29;;;;;;;23.98;11.73;;;1.30;99.90;;;;;;6310397;22;20094;-86
2022/03/10 05:09:55;;;;;;;23.50;12.52;;;1.20;99.90;;;;;;6289386;22;20038;-85
2022/03/10 05:12:43;;;;;;;29.10;13.50;;;1.30;99.90;;;;;;6314326;22;20007;-87
2022/03/10 05:15:33;;;;;;;24.27;12.05;;;1.20;99.90;;;;;;6162607;23;20191;-89
2022/03/10 05:18:21;;;;;;;;;;;;;;;;;;;;;
2022/03/10 05:21:08;;;;;;;24.40;12.68;;;1.20;99.90;;;;;;6101031;23;20013;-85
2022/03/10 05:23:57;;;;;;;;;;;;;;;;;;;;;
2022/03/10 05:26:51;;;;;;;25.83;12.40;;;1.30;99.90;;;;;;6275355;22;20047;-86
2022/03/10 05:29:40;;;;;;;;;;;;;;;;;;;;;
2022/03/10 05:32:23;;;;;;;29.67;13.27;;;1.20;99.90;;;;;;6274531;22;20504;-85
2022/03/10 05:35:14;;;;;;;;;;;;;;;;;;;;;
2022/03/10 05:38:05;;;;;;;;;;;;;;;;;;;;;
2022/03/10 05:41:17;;;;;;;;;;;;;;;;;;;;;
2022/03/10 05:43:56;;;;;;;24.42;11.57;;;1.40;99.90;;;;;;6313124;22;20015;-85
2022/03/10 05:46:25;;;;;;;28.35;13.13;;;1.50;99.90;;;;;;6314290;22;20491;-85
2022/03/10 05:48:54;;;;;;;23.40;12.15;;;1.50;99.90;;;;;;6314173;22;20046;-87
2022/03/10 05:51:20;;;;;;;22.73;11.57;;;1.60;99.90;;;;;;6339973;22;20447;-85
2022/03/10 05:53:48;;;;;;;22.75;12.40;;;1.60;99.90;;;;;;6314162;22;20018;-85
2022/03/10 05:56:14;;;;;;;24.27;11.85;;;1.60;99.90;;;;;;6314453;22;20015;-85
2022/03/10 05:58:42;;;;;;;25.75;12.25;;;1.60;99.90;;;;;;6340451;22;20006;-85
2022/03/10 06:01:18;;;;;;;;;;;;;;;;;;;;;
2022/03/10 06:03:46;;;;;;;24.63;12.88;;;1.60;99.90;;;;;;6313700;22;20045;-85
2022/03/10 06:06:13;;;;;;;26.60;13.43;;;1.50;99.90;;;;;;6313597;22;20366;-85
2022/03/10 06:08:49;;;;;;;;;;;;;;;;;;;;;
2022/03/10 06:11:15;;;;;;;27.17;12.27;;;1.50;99.90;;;;;;6313708;22;20007;-84
2022/03/10 06:13:41;;;;;;;23.63;12.60;;;1.50;99.90;;;;;;6314029;22;20010;-86
2022/03/10 06:16:10;;;;;;;26.33;12.05;;;1.50;99.90;;;;;;6340117;22;20015;-84
2022/03/10 06:18:48;;;;;;;;;;;;;;;;;;;;;
2022/03/10 06:21:15;;;;;;;25.15;12.93;;;1.50;99.90;;;;;;6312406;22;20451;-84
2022/03/10 06:23:41;;;;;;;23.30;11.90;;;1.50;99.90;;;;;;6312811;22;20033;-84
2022/03/10 06:26:07;;;;;;;24.55;12.63;;;1.40;99.90;;;;;;6312163;22;20081;-84
2022/03/10 06:28:32;;;;;;;23.63;12.00;;;1.50;99.90;;;;;;6340359;22;20003;-86
2022/03/10 06:30:58;;;;;;;27.73;12.80;;;1.50;99.90;;;;;;6312475;22;20022;-86
2022/03/10 06:33:24;;;;;;;28.08;13.35;;;1.50;99.90;;;;;;6288698;22;20086;-86
2022/03/10 06:35:50;;;;;;;25.30;12.82;;;1.50;99.90;;;;;;6313218;22;20456;-84
2022/03/10 06:38:18;;;;;;;23.45;12.45;;;1.50;99.90;;;;;;6339729;22;20072;-85
2022/03/10 06:40:44;;;;;;;22.88;11.43;;;1.50;99.90;;;;;;6314442;22;20072;-85
2022/03/10 06:43:09;;;;;;;23.63;12.52;;;1.60;99.90;;;;;;6315005;22;20018;-86
2022/03/10 06:45:45;;;;;;;25.08;12.75;;;1.60;99.90;;;;;;6316162;22;20055;-84
2022/03/10 06:48:14;;;;;;;28.15;12.50;;;1.70;99.90;;;;;;6288505;22;20405;-83
2022/03/10 06:51:04;;;;;;;;;;;;;;;;;;;;;
2022/03/10 06:53:33;;;;;;;22.88;10.95;;;1.70;99.90;;;;;;6340049;22;20021;-85
2022/03/10 06:56:01;;;;;;;25.17;12.05;;;1.80;99.90;;;;;;6313850;22;20112;-85
2022/03/10 06:58:42;;;;;;;;;;;;;;;;;;;;;
2022/03/10 07:01:30;;;;;;;;;;;;;;;;;;;;;
2022/03/10 07:03:57;;;;;;;25.00;11.57;;;1.90;99.90;;;;;;6312717;22;20022;-83
2022/03/10 07:06:29;;;;;;;26.95;13.43;;;2.00;99.90;;;;;;6288059;22;20015;-84
2022/03/10 07:08:57;;;;;;;23.33;12.07;;;2.00;99.90;;;;;;6314492;22;20079;-87
2022/03/10 07:16:18;;;;;;;26.05;12.10;;;2.10;99.90;;;;;;6235226;22;20069;-85
2022/03/10 07:18:51;;;;;;;23.38;12.05;;;2.20;99.90;;;;;;6170268;23;20023;-83
2022/03/10 07:21:20;;;;;;;25.60;12.30;;;2.30;99.90;;;;;;6220433;22;20511;-78
2022/03/10 07:36:42;;;;;;;24.88;12.43;;;2.80;99.90;;;;;;6309702;22;20099;-89
2022/03/10 07:39:08;;;;;;;21.80;11.95;;;2.90;99.90;;;;;;6282338;22;20019;-86
2022/03/10 07:41:37;;;;;;;24.02;12.48;;;3.00;99.90;;;;;;6281848;22;20068;-84
2022/03/10 07:44:25;;;;;;;21.05;11.55;;;3.10;99.90;;;;;;6281204;22;20364;-84
2022/03/10 07:46:54;;;;;;;25.65;12.95;;;3.20;99.90;;;;;;6255032;22;20008;-84
2022/03/10 07:50:18;;;;;;;23.45;12.43;;;3.30;99.90;;;;;;6309021;22;20019;-87
2022/03/10 07:53:29;;;;;;;23.45;10.40;;;3.40;99.90;;;;;;6097609;23;20018;-86
2022/03/10 08:00:06;;;;;;;24.10;12.15;;;3.80;99.90;;;;;;6059813;23;20098;-85
2022/03/10 08:02:38;;;;;;;23.80;11.57;;;3.90;99.90;;;;;;6248900;22;20022;-85
2022/03/10 08:06:13;;;;;;;24.85;13.60;;;4.00;99.90;;;;;;6258122;22;20141;-85
2022/03/10 10:18:39;;;;;;;26.80;13.95;;;11.40;82.50;;;;;;6357684;22;20019;-88
2022/03/10 12:19:41;;;;;;;;;;;16.50;55.30;;;;;;6346145;22;20341;-87
2022/03/10 12:22:09;;;;;;;30.98;15.70;;;16.60;55.40;;;;;;6214408;23;20318;-87
2022/03/10 12:24:35;;;;;;;28.75;16.13;;;16.60;54.80;;;;;;6164672;23;20017;-86
2022/03/10 12:27:10;;;;;;;28.17;14.80;;;16.60;55.60;;;;;;6164896;23;20047;-87
2022/03/10 12:29:36;;;;;;;30.58;16.30;;;16.70;54.20;;;;;;6163856;23;20044;-86
2022/03/10 12:39:28;;;;;;;29.30;16.20;;;16.70;54.80;;;;;;6233295;22;20023;-87
2022/03/10 12:42:35;;;;;;;29.50;15.68;;;17.00;54.60;;;;;;6257704;22;20015;-88
2022/03/10 12:45:29;;;;;;;27.80;15.45;;;17.10;52.90;;;;;;6221498;23;20031;-88
2022/03/10 12:49:04;;;;;;;;;;;;;;;;;;;;;
2022/03/10 12:52:29;;;;;;;29.17;15.15;;;17.30;53.30;;;;;;6217623;23;20059;-86
2022/03/10 12:58:54;;;;;;;25.02;15.25;;;18.30;50.80;;;;;;6203885;23;20021;-87
2022/03/10 13:02:03;;;;;;;27.00;14.48;;;18.60;50.20;;;;;;6184122;23;20013;-86
2022/03/10 13:05:08;;;;;;;26.00;14.90;;;18.90;49.90;;;;;;6217270;23;20082;-87
2022/03/10 13:07:39;;;;;;;25.85;14.48;;;19.10;48.20;;;;;;6192619;23;20067;-87
2022/03/10 13:10:41;;;;;;;;;;;;;;;;;;;;;
2022/03/10 13:13:11;;;;;;;26.85;14.55;;;18.90;48.20;;;;;;6190905;23;20012;-88
2022/03/10 13:16:24;;;;;;;23.83;14.50;;;18.40;49.10;;;;;;6343023;22;20407;-90
2022/03/10 13:19:51;;;;;;;;;;;;;;;;;;;;;
2022/03/10 13:27:00;;;;;;;24.88;14.10;;;17.80;48.10;;;;;;6123662;23;20024;-89
2022/03/10 13:29:55;;;;;;;25.40;13.80;;;17.70;48.90;;;;;;6126569;23;20073;-89
2022/03/10 13:32:48;;;;;;;;;;;;;;;;;;;;;
2022/03/10 13:35:15;;;;;;;22.98;12.88;;;17.50;49.00;;;;;;6115738;23;20014;-89
2022/03/10 13:37:59;;;;;;;23.48;14.00;;;17.40;48.70;;;;;;6123975;23;20034;-89
2022/03/10 13:44:34;;;;;;;25.02;14.25;;;17.40;49.00;;;;;;6215784;22;20058;-88
2022/03/10 13:47:08;;;;;;;27.05;14.73;;;17.60;49.40;;;;;;6280031;22;20054;-89
2022/03/10 13:50:11;;;;;;;;;;;;;;;;;;;;;
2022/03/10 13:52:54;;;;;;;25.92;14.57;;;17.60;49.30;;;;;;6318302;22;20087;-90
2022/03/10 13:55:52;;;;;;;24.63;13.90;;;17.60;48.40;;;;;;6288944;22;20019;-88
2022/03/10 13:58:36;;;;;;;25.08;15.30;;;17.80;48.80;;;;;;6316364;22;20086;-89
2022/03/10 14:01:20;;;;;;;24.35;13.93;;;17.90;48.70;;;;;;6316344;22;20058;-89
2022/03/10 14:04:21;;;;;;;32.13;14.75;;;17.90;49.00;;;;;;6316247;22;20011;-89
2022/03/10 14:11:08;;;;;;;24.42;13.68;;;17.90;48.10;;;;;;6142476;23;20496;-89
2022/03/10 14:26:44;;;;;;;;;;;;;;;;;;;;;
2022/03/10 14:29:51;;;;;;;25.05;13.80;;;17.90;47.70;;;;;;5798842;24;20143;-90
2022/03/10 14:34:59;;;;;;;23.08;13.13;;;17.80;47.80;;;;;;6343888;22;20023;-88
2022/03/10 14:37:33;;;;;;;24.15;14.23;;;17.80;47.90;;;;;;6315748;22;20039;-88
2022/03/10 14:40:12;;;;;;;;;;;;;;;;;;;;;
2022/03/10 14:42:38;;;;;;;22.13;13.63;;;17.70;48.00;;;;;;6315262;22;20018;-89
2022/03/10 14:45:04;;;;;;;21.98;13.35;;;17.90;48.20;;;;;;6289792;22;20011;-90
2022/03/10 14:47:36;;;;;;;21.90;13.55;;;17.90;48.20;;;;;;6315788;22;20094;-88
2022/03/10 14:50:04;;;;;;;23.60;14.32;;;18.00;48.00;;;;;;6315447;22;20021;-88
2022/03/10 14:52:33;;;;;;;22.40;13.82;;;18.00;47.00;;;;;;6315848;22;20015;-88
2022/03/10 14:54:58;;;;;;;26.08;14.68;;;18.00;47.30;;;;;;6315600;22;20038;-88
2022/03/10 14:57:30;;;;;;;21.92;13.43;;;17.90;46.80;;;;;;6315179;22;20014;-90
2022/03/10 15:00:08;;;;;;;22.83;14.15;;;18.00;47.20;;;;;;6316076;22;20044;-88
2022/03/10 15:02:47;;;;;;;22.00;13.68;;;18.00;46.70;;;;;;6314374;22;20020;-90
2022/03/10 15:05:13;;;;;;;25.45;13.40;;;18.00;46.50;;;;;;6288273;22;20011;-89
2022/03/10 15:07:42;;;;;;;22.60;13.98;;;18.00;46.90;;;;;;6340564;22;20058;-89
2022/03/10 15:10:28;;;;;;;21.67;13.35;;;18.00;46.50;;;;;;6315951;22;20003;-89
2022/03/10 15:12:55;;;;;;;26.23;13.60;;;18.00;46.00;;;;;;6287823;22;20011;-89
2022/03/10 15:15:33;;;;;;;;;;;;;;;;;;;;;
2022/03/10 15:18:08;;;;;;;22.80;13.38;;;17.80;46.20;;;;;;6314840;22;20010;-90
2022/03/10 15:20:51;;;;;;;23.35;13.98;;;17.80;45.90;;;;;;6343268;22;20014;-89
2022/03/10 15:23:33;;;;;;;26.17;14.35;;;17.80;46.30;;;;;;6315454;22;20015;-88
2022/03/10 15:26:05;;;;;;;23.20;14.02;;;17.70;46.20;;;;;;6316136;22;20010;-90
2022/03/10 15:28:36;;;;;;;24.73;14.30;;;17.80;46.20;;;;;;6289539;22;20015;-89
2022/03/10 15:31:08;;;;;;;25.73;14.93;;;17.90;46.70;;;;;;6315303;22;20022;-90
2022/03/10 15:33:37;;;;;;;25.67;14.85;;;17.90;45.90;;;;;;6316546;22;20014;-89
2022/03/10 15:36:22;;;;;;;;;;;;;;;;;;;;;
2022/03/10 15:38:57;;;;;;;26.17;14.55;;;17.80;45.60;;;;;;6316402;22;20037;-90
2022/03/10 15:41:26;;;;;;;;;;;17.90;45.70;;;;;;6315929;22;20396;-90
2022/03/10 15:43:52;;;;;;;25.70;14.63;;;17.90;46.40;;;;;;6288015;22;19911;-89
2022/03/10 15:46:21;;;;;;;27.00;15.13;;;17.80;45.80;;;;;;6312921;22;20473;-89
2022/03/10 15:49:10;;;;;;;;;;;;;;;;;;;;;
2022/03/10 15:52:36;;;;;;;24.45;14.60;;;17.70;45.80;;;;;;6314445;22;20017;-90
2022/03/10 16:00:17;;;;;;;29.42;15.15;;;18.20;45.00;;;;;;6127456;23;20084;-88
2022/03/10 16:24:59;;;;;;;;;;;;;;;;;;;;;
2022/03/10 16:27:38;;;;;;;;;;;;;;;;;;;;;
2022/03/10 16:30:51;;;;;;;;;;;;;;;;;;;;;
2022/03/10 16:33:44;;;;;;;28.95;16.08;;;17.80;45.80;;;;;;6312266;22;20011;-90
2022/03/10 16:36:11;;;;;;;27.83;15.98;;;17.40;45.90;;;;;;6313758;22;20050;-88
2022/03/10 16:38:56;;;;;;;26.30;15.80;;;17.00;46.20;;;;;;6314754;22;20013;-90
2022/03/10 16:41:25;;;;;;;29.48;16.45;;;16.70;46.30;;;;;;6313936;22;20021;-89
2022/03/10 16:44:20;;;;;;;28.35;16.55;;;16.40;46.70;;;;;;6289071;22;20026;-89
2022/03/10 16:47:07;;;;;;;;;;;;;;;;;;;;;
2022/03/10 16:49:32;;;;;;;30.50;15.63;;;15.80;47.30;;;;;;6313154;22;20007;-91
2022/03/10 16:51:58;;;;;;;30.65;16.65;;;15.70;47.60;;;;;;6341886;22;20367;-88
2022/03/10 16:54:27;;;;;;;32.22;16.67;;;15.50;47.90;;;;;;6288178;22;20007;-88
2022/03/10 16:56:53;;;;;;;30.08;17.67;;;15.30;48.10;;;;;;6313673;22;20011;-88
2022/03/10 16:59:19;;;;;;;29.92;16.83;;;15.20;48.30;;;;;;6314687;22;20086;-88
2022/03/10 17:01:58;;;;;;;;;;;;;;;;;;;;;
2022/03/10 17:05:14;;;;;;;30.40;16.33;;;14.90;49.10;;;;;;6313650;22;20019;-90
2022/03/10 17:07:49;;;;;;;30.35;17.13;;;14.70;49.70;;;;;;6249130;22;20015;-89
2022/03/10 17:14:07;;;;;;;31.67;16.70;;;14.40;50.80;;;;;;6252812;22;20019;-88
2022/03/10 17:17:11;;;;;;;30.75;16.63;;;14.30;50.50;;;;;;6247138;23;20016;-88
2022/03/10 17:19:56;;;;;;;35.10;17.83;;;14.10;51.00;;;;;;6221463;23;20071;-89
2022/03/10 17:22:55;;;;;;;;;;;;;;;;;;;;;
2022/03/10 17:25:52;;;;;;;;;;;;;;;;;;;;;
2022/03/10 17:31:55;;;;;;;;;;;;;;;;;;;;;
2022/03/10 17:38:45;;;;;;;31.65;15.52;;;13.40;52.00;;;;;;6172265;23;20054;-87
2022/03/10 17:41:40;;;;;;;28.10;15.00;;;13.20;52.30;;;;;;6192338;23;20004;-90
2022/03/10 17:44:25;;;;;;;29.02;14.57;;;13.10;52.30;;;;;;6166328;23;20000;-89
2022/03/10 17:54:42;;;;;;;28.00;14.65;;;12.70;53.00;;;;;;6093068;23;20378;-89
2022/03/10 17:58:40;;;;;;;;;;;;;;;;;;;;;
2022/03/10 18:01:34;;;;;;;23.88;13.75;;;12.40;54.10;;;;;;6109572;23;20013;-87
2022/03/10 18:04:00;;;;;;;24.55;12.10;;;12.30;53.50;;;;;;6255342;22;20046;-82
2022/03/10 18:06:25;;;;;;;25.75;13.02;;;12.20;53.60;;;;;;6306626;22;20023;-78
2022/03/10 18:08:51;;;;;;;24.13;12.27;;;12.10;53.70;;;;;;6280700;22;20003;-84
2022/03/10 18:11:17;;;;;;;21.95;12.93;;;12.00;54.00;;;;;;6307257;22;20019;-89
2022/03/10 18:13:43;;;;;;;24.83;12.45;;;12.00;54.30;;;;;;6257778;22;20025;-89
2022/03/10 18:16:09;;;;;;;23.55;12.98;;;11.90;54.50;;;;;;6259176;22;20018;-89
2022/03/10 18:18:35;;;;;;;19.90;10.98;;;11.90;54.80;;;;;;6284525;22;20453;-89
2022/03/10 18:21:04;;;;;;;20.55;11.80;;;11.80;55.10;;;;;;6283922;22;20516;-89
2022/03/10 18:23:34;;;;;;;24.05;11.75;;;11.70;55.30;;;;;;6283694;22;20015;-90
2022/03/10 18:26:00;;;;;;;23.33;12.32;;;11.60;55.30;;;;;;6257969;22;20030;-90
2022/03/10 18:28:29;;;;;;;21.20;11.05;;;11.50;55.50;;;;;;6284874;22;20461;-89
2022/03/10 18:30:55;;;;;;;20.25;11.00;;;11.50;55.90;;;;;;6283130;22;20011;-88
2022/03/10 18:33:21;;;;;;;21.65;12.20;;;11.40;56.00;;;;;;6258633;22;20007;-89
2022/03/10 18:35:47;;;;;;;19.02;10.45;;;11.30;56.50;;;;;;6284004;22;20011;-89
2022/03/10 18:38:13;;;;;;;19.80;11.00;;;11.30;56.60;;;;;;6284317;22;20338;-90
2022/03/10 18:40:39;;;;;;;21.70;11.35;;;11.20;56.80;;;;;;6257237;22;20114;-88
2022/03/10 18:43:08;;;;;;;18.10;11.35;;;11.20;56.90;;;;;;6283467;22;20019;-89
2022/03/10 18:45:34;;;;;;;20.48;10.93;;;11.10;56.90;;;;;;6283806;22;20036;-89
2022/03/10 18:48:00;;;;;;;18.52;10.52;;;11.10;57.30;;;;;;6283835;22;20007;-89
2022/03/10 18:50:26;;;;;;;18.63;10.95;;;10.90;57.40;;;;;;6282850;22;20007;-89
2022/03/10 18:53:09;;;;;;;17.60;10.27;;;10.90;57.80;;;;;;6285829;22;20022;-89
2022/03/10 18:56:04;;;;;;;;;;;;;;;;;;;;;
2022/03/10 18:58:44;;;;;;;18.42;9.85;;;10.80;58.20;;;;;;6281160;22;20065;-88
2022/03/10 19:01:18;;;;;;;16.23;9.23;;;10.70;58.30;;;;;;6279890;22;20088;-86
2022/03/10 19:04:13;;;;;;;17.83;9.00;;;10.70;58.50;;;;;;6259085;22;20015;-88
2022/03/10 19:06:42;;;;;;;14.55;8.38;;;10.70;58.70;;;;;;6282914;22;20011;-89
2022/03/10 19:09:08;;;;;;;14.32;9.30;;;10.60;58.60;;;;;;6259139;22;20506;-89
2022/03/10 19:12:00;;;;;;;;;;;;;;;;;;;;;
2022/03/10 19:14:48;;;;;;;;;;;;;;;;;;;;;
2022/03/10 19:17:29;;;;;;;16.45;8.70;;;10.60;59.00;;;;;;6308978;22;20022;-89
2022/03/10 19:20:14;;;;;;;;;;;;;;;;;;;;;
2022/03/10 19:22:50;;;;;;;;;;;;;;;;;;;;;
2022/03/10 19:25:18;;;;;;;16.73;8.52;;;10.50;59.60;;;;;;6221224;23;20030;-90
2022/03/10 19:28:59;;;;;;;16.70;8.68;;;10.50;59.90;;;;;;6195209;23;20012;-90
2022/03/10 19:32:01;;;;;;;;;;;;;;;;;;;;;
2022/03/10 19:34:36;;;;;;;12.75;8.00;;;10.40;60.40;;;;;;6245652;23;20019;-90
2022/03/10 19:38:08;;;;;;;16.55;9.00;;;10.30;60.50;;;;;;6222069;23;20020;-90
2022/03/10 19:41:31;;;;;;;14.95;8.20;;;10.30;61.30;;;;;;6189624;23;20017;-89
2022/03/10 19:44:26;;;;;;;13.82;8.18;;;10.30;61.30;;;;;;6236790;22;20026;-89
2022/03/10 19:47:01;;;;;;;14.40;8.40;;;10.20;61.20;;;;;;6249919;22;20015;-89
2022/03/10 19:49:39;;;;;;;15.57;7.90;;;10.20;61.30;;;;;;6250940;22;20012;-89
2022/03/10 19:52:31;;;;;;;;;;;;;;;;;;;;;
2022/03/10 19:54:59;;;;;;;12.88;8.07;;;10.00;61.80;;;;;;6251753;22;20007;-90
2022/03/10 19:57:25;;;;;;;17.38;8.30;;;10.00;61.90;;;;;;6251250;22;20011;-89
2022/03/10 20:00:00;;;;;;;13.90;8.40;;;9.90;62.00;;;;;;6252325;22;20086;-87
2022/03/10 20:02:34;;;;;;;13.45;8.10;;;9.90;62.10;;;;;;6252536;22;20023;-89
2022/03/10 20:05:00;;;;;;;14.80;8.38;;;9.90;62.30;;;;;;6226097;22;20007;-84
2022/03/10 20:07:25;;;;;;;14.65;8.05;;;9.90;62.60;;;;;;6276679;22;20054;-88
2022/03/10 20:09:52;;;;;;;26.05;9.55;;;9.80;62.80;;;;;;6251301;22;20012;-89
2022/03/10 20:12:18;;;;;;;14.10;8.35;;;9.80;63.20;;;;;;6275315;22;20451;-88
2022/03/10 20:14:50;;;;;;;17.02;9.27;;;9.70;63.30;;;;;;6283023;22;20022;-88
2022/03/10 20:17:16;;;;;;;16.02;8.95;;;9.70;63.70;;;;;;6283662;22;20341;-89
2022/03/10 20:19:42;;;;;;;14.30;8.55;;;9.60;63.80;;;;;;6284091;22;20011;-88
2022/03/10 20:22:07;;;;;;;16.63;8.57;;;9.50;63.90;;;;;;6260974;22;20425;-88
2022/03/10 20:24:33;;;;;;;16.48;9.07;;;9.50;64.30;;;;;;6257956;22;20035;-89
2022/03/10 20:26:59;;;;;;;16.52;8.52;;;9.40;64.50;;;;;;6284035;22;20072;-89
2022/03/10 20:29:25;;;;;;;17.50;8.60;;;9.40;64.90;;;;;;6283562;22;20149;-89
2022/03/10 20:31:51;;;;;;;15.82;9.00;;;9.30;65.20;;;;;;6257911;22;20018;-89
2022/03/10 20:34:22;;;;;;;16.58;8.32;;;9.30;65.50;;;;;;6283345;22;20023;-89
2022/03/10 20:36:49;;;;;;;16.63;9.07;;;9.20;65.90;;;;;;6283143;22;20015;-88
2022/03/10 20:39:14;;;;;;;18.00;8.73;;;9.20;66.20;;;;;;6283871;22;20018;-89
2022/03/10 20:41:40;;;;;;;15.80;8.95;;;9.20;67.30;;;;;;6259271;22;20382;-88
2022/03/10 20:44:06;;;;;;;18.27;8.57;;;9.10;67.00;;;;;;6284375;22;20022;-89
2022/03/10 20:46:32;;;;;;;16.52;8.02;;;9.10;67.20;;;;;;6258304;22;20337;-88
2022/03/10 20:48:58;;;;;;;16.35;9.65;;;9.10;67.50;;;;;;6283697;22;20039;-88
2022/03/10 20:51:27;;;;;;;16.50;9.10;;;9.00;67.80;;;;;;6259069;22;20087;-89
2022/03/10 20:53:52;;;;;;;15.80;9.18;;;8.90;68.30;;;;;;6311465;22;20022;-88
2022/03/10 20:56:18;;;;;;;16.45;9.07;;;8.90;68.70;;;;;;6283082;22;20015;-88
2022/03/10 20:58:44;;;;;;;15.52;8.80;;;8.90;69.00;;;;;;6256319;22;20061;-88
2022/03/10 21:01:10;;;;;;;16.10;8.98;;;8.80;69.20;;;;;;6258036;22;20019;-89
2022/03/10 21:03:35;;;;;;;15.68;8.93;;;8.70;69.70;;;;;;6286067;22;20026;-88
2022/03/10 21:06:01;;;;;;;15.40;8.77;;;8.70;70.20;;;;;;6286437;22;20012;-88
2022/03/10 21:08:27;;;;;;;16.48;9.60;;;8.70;70.70;;;;;;6260506;22;20007;-89
2022/03/10 21:10:54;;;;;;;14.50;8.63;;;8.60;71.00;;;;;;6259468;22;20062;-89
2022/03/10 21:13:20;;;;;;;15.95;9.32;;;8.60;71.40;;;;;;6260760;22;20004;-90
2022/03/10 21:15:47;;;;;;;16.63;8.70;;;8.60;71.80;;;;;;6260354;22;20004;-89
2022/03/10 21:18:12;;;;;;;13.63;7.88;;;8.60;72.30;;;;;;6285890;22;20041;-89
2022/03/10 21:20:39;;;;;;;17.95;8.45;;;8.60;72.90;;;;;;6284663;22;20019;-88
2022/03/10 21:23:05;;;;;;;15.15;7.68;;;8.60;73.00;;;;;;6284346;22;20437;-88
2022/03/10 21:25:31;;;;;;;16.75;8.55;;;8.60;73.40;;;;;;6258636;22;20011;-89
2022/03/10 21:27:59;;;;;;;14.38;8.23;;;8.60;73.80;;;;;;6258897;22;20449;-89
2022/03/10 21:30:25;;;;;;;20.08;8.82;;;8.50;74.40;;;;;;6258557;22;20045;-88
2022/03/10 21:32:51;;;;;;;14.63;8.68;;;8.50;74.80;;;;;;6257578;22;20015;-87
2022/03/10 21:35:16;;;;;;;14.90;8.40;;;8.50;75.40;;;;;;6284252;22;19999;-89
2022/03/10 21:37:42;;;;;;;19.08;9.35;;;8.40;76.00;;;;;;6284739;22;20076;-89
2022/03/10 21:41:13;;;;;;;14.65;8.25;;;8.40;76.50;;;;;;6285062;22;20369;-89
2022/03/10 21:43:37;;;;;;;13.98;7.85;;;8.40;77.40;;;;;;6303036;22;20054;-79
2022/03/10 21:46:03;;;;;;;16.30;9.25;;;8.30;77.80;;;;;;6308241;22;20011;-87
2022/03/10 21:48:28;;;;;;;14.13;8.20;;;8.30;78.20;;;;;;6311131;22;20008;-88
2022/03/10 21:50:56;;;;;;;16.25;8.68;;;8.20;78.90;;;;;;6286690;22;20007;-88
2022/03/10 21:53:22;;;;;;;16.48;8.18;;;8.20;79.70;;;;;;6314141;22;20007;-88
2022/03/10 21:55:48;;;;;;;16.88;9.20;;;8.20;80.60;;;;;;6289513;22;20011;-89
2022/03/10 21:58:13;;;;;;;17.17;8.48;;;8.20;81.40;;;;;;6287980;22;20011;-89
2022/03/10 22:00:39;;;;;;;15.88;8.75;;;8.10;81.90;;;;;;6316116;22;20090;-89
2022/03/10 22:03:05;;;;;;;15.48;8.30;;;8.10;82.50;;;;;;6263964;22;20037;-88
2022/03/10 22:05:31;;;;;;;14.23;8.07;;;8.10;82.70;;;;;;6288899;22;20335;-88
2022/03/10 22:07:56;;;;;;;17.75;8.30;;;8.10;83.50;;;;;;6261353;22;20445;-88
2022/03/10 22:10:23;;;;;;;16.30;8.07;;;8.00;83.60;;;;;;6257503;22;20018;-88
2022/03/10 22:12:52;;;;;;;14.80;8.38;;;8.00;84.00;;;;;;6255354;22;20403;-89
2022/03/10 22:15:18;;;;;;;16.77;7.97;;;8.00;85.30;;;;;;6257487;22;20047;-89
2022/03/10 22:17:43;;;;;;;13.60;8.05;;;8.00;85.10;;;;;;6286210;22;20449;-89
2022/03/10 22:20:10;;;;;;;14.35;7.90;;;8.00;85.70;;;;;;6285763;22;20011;-89
2022/03/10 22:22:38;;;;;;;14.52;8.13;;;7.90;86.10;;;;;;6259589;22;20041;-89
2022/03/10 22:25:05;;;;;;;15.32;7.22;;;7.90;86.40;;;;;;6285404;22;20065;-88
2022/03/10 22:27:43;;;;;;;;;;;;;;;;;;;;;
2022/03/10 22:30:10;;;;;;;15.65;7.80;;;7.90;87.70;;;;;;6283869;22;20101;-89
2022/03/10 22:32:35;;;;;;;12.57;7.25;;;7.90;87.90;;;;;;6259388;22;20007;-88
2022/03/10 22:35:05;;;;;;;18.10;8.23;;;7.90;88.30;;;;;;6260167;22;20425;-88
2022/03/10 22:37:30;;;;;;;15.05;7.88;;;7.80;88.60;;;;;;6261678;22;20092;-88
2022/03/10 22:39:56;;;;;;;14.90;8.00;;;7.70;89.10;;;;;;6286660;22;20436;-88
2022/03/10 22:42:22;;;;;;;15.05;7.97;;;7.70;89.60;;;;;;6286056;22;20093;-87
2022/03/10 22:44:48;;;;;;;15.50;8.80;;;7.70;89.80;;;;;;6284508;22;20011;-86
2022/03/10 22:47:13;;;;;;;17.80;7.82;;;7.70;90.20;;;;;;6258806;22;19999;-88
2022/03/10 22:54:12;;;;;;;14.13;7.55;;;7.60;90.40;;;;;;6284536;22;20011;-89
2022/03/10 22:55:09;;;;;;;15.98;8.35;;;7.50;90.80;;;;;;6311235;22;20015;-90
2022/03/10 22:57:34;;;;;;;15.68;8.02;;;7.50;91.00;;;;;;6258391;22;20113;-88
2022/03/10 23:00:00;;;;;;;15.38;8.55;;;7.50;91.20;;;;;;6284579;22;20409;-88
2022/03/10 23:02:26;;;;;;;14.50;8.05;;;7.50;91.40;;;;;;6258189;22;20011;-87
2022/03/10 23:07:37;;;;;;;15.77;7.78;;;7.40;91.70;;;;;;6310004;22;20025;-88
2022/03/10 23:10:04;;;;;;;16.88;8.13;;;7.40;92.00;;;;;;6257813;22;20018;-88
2022/03/10 23:12:32;;;;;;;13.50;8.00;;;7.40;92.20;;;;;;6282098;22;20116;-87
2022/03/10 23:14:58;;;;;;;16.27;8.02;;;7.40;92.40;;;;;;6257240;22;20075;-86
2022/03/10 23:17:23;;;;;;;14.63;8.50;;;7.30;92.70;;;;;;6256788;22;20046;-86
2022/03/10 23:19:55;;;;;;;15.27;7.95;;;7.30;92.70;;;;;;6284360;22;20333;-87
2022/03/10 23:22:20;;;;;;;15.23;8.43;;;7.30;93.00;;;;;;6308892;22;20322;-88
2022/03/10 23:24:48;;;;;;;19.92;9.18;;;7.20;93.20;;;;;;6283464;22;20080;-88
2022/03/10 23:27:15;;;;;;;18.08;9.07;;;7.20;93.40;;;;;;6309941;22;20437;-88
2022/03/10 23:29:43;;;;;;;15.57;8.65;;;7.10;93.60;;;;;;6283320;22;20007;-87
2022/03/10 23:32:18;;;;;;;14.95;8.93;;;7.10;94.10;;;;;;6311372;22;20074;-86
2022/03/10 23:34:43;;;;;;;19.00;9.47;;;7.00;94.20;;;;;;6283687;22;20035;-87
2022/03/10 23:37:12;;;;;;;16.83;9.00;;;7.10;94.50;;;;;;6283188;22;20394;-88
2022/03/10 23:39:38;;;;;;;16.70;9.00;;;7.00;94.70;;;;;;6257830;22;20452;-89
2022/03/10 23:42:04;;;;;;;17.73;8.50;;;7.00;94.90;;;;;;6257653;22;20019;-87
2022/03/10 23:44:29;;;;;;;17.35;9.35;;;6.90;95.20;;;;;;6282627;22;20011;-86
2022/03/10 23:46:57;;;;;;;15.68;8.65;;;6.90;95.40;;;;;;6310420;22;20038;-87
2022/03/10 23:49:23;;;;;;;14.73;8.57;;;6.90;95.60;;;;;;6283308;22;20164;-88
2022/03/10 23:51:49;;;;;;;15.50;8.85;;;6.90;95.90;;;;;;6257647;22;20015;-89
2022/03/10 23:54:14;;;;;;;17.50;8.75;;;6.90;96.00;;;;;;6282863;22;20015;-89
2022/03/10 23:56:40;;;;;;;16.27;9.63;;;6.90;96.30;;;;;;6258023;22;20015;-88
2022/03/10 23:59:09;;;;;;;14.90;8.45;;;6.80;96.40;;;;;;6257779;22;20015;-88
